sensor_id;sensor_type;location;lat;lon;timestamp;pressure;altitude;pressure_sealevel;temperature;humidity
5703;BME280;2876;51.738;10.050;2022-12-18T00:01:50;100612.78;;;-7.39;96.10
5703;BME280;2876;51.738;10.050;2022-12-18T00:07:52;100618.03;;;-7.66;95.59
5703;BME280;2876;51.738;10.050;2022-12-18T00:13:57;100625.25;;;-7.74;95.13
5703;BME280;2876;51.738;10.050;2022-12-18T00:19:59;100624.84;;;-7.88;94.93
5703;BME280;2876;51.738;10.050;2022-12-18T00:26:05;100635.03;;;-7.81;94.59
5703;BME280;2876;51.738;10.050;2022-12-18T00:32:08;100648.63;;;-7.73;94.47
5703;BME280;2876;51.738;10.050;2022-12-18T00:38:09;100649.91;;;-7.86;94.83
5703;BME280;2876;51.738;10.050;2022-12-18T00:44:14;100653.69;;;-7.95;94.89
5703;BME280;2876;51.738;10.050;2022-12-18T00:50:16;100649.94;;;-8.12;94.54
5703;BME280;2876;51.738;10.050;2022-12-18T00:56:18;100658.19;;;-8.00;94.00
5703;BME280;2876;51.738;10.050;2022-12-18T01:02:20;100658.19;;;-8.00;94.28
5703;BME280;2876;51.738;10.050;2022-12-18T01:08:23;100653.41;;;-8.13;93.51
5703;BME280;2876;51.738;10.050;2022-12-18T01:14:25;100663.13;;;-8.19;93.83
5703;BME280;2876;51.738;10.050;2022-12-18T01:20:27;100659.31;;;-8.08;94.00
5703;BME280;2876;51.738;10.050;2022-12-18T01:26:29;100666.34;;;-8.10;94.87
5703;BME280;2876;51.738;10.050;2022-12-18T01:32:32;100676.69;;;-8.09;95.21
5703;BME280;2876;51.738;10.050;2022-12-18T01:38:34;100683.31;;;-7.99;95.18
5703;BME280;2876;51.738;10.050;2022-12-18T01:45:03;100688.53;;;-7.99;94.70
5703;BME280;2876;51.738;10.050;2022-12-18T01:51:08;100679.44;;;-7.85;94.81
5703;BME280;2876;51.738;10.050;2022-12-18T01:57:11;100679.47;;;-7.87;94.38
5703;BME280;2876;51.738;10.050;2022-12-18T02:03:13;100677.97;;;-7.94;94.12
5703;BME280;2876;51.738;10.050;2022-12-18T02:09:22;100676.06;;;-7.89;94.67
5703;BME280;2876;51.738;10.050;2022-12-18T02:15:57;100680.06;;;-7.79;93.64
5703;BME280;2876;51.738;10.050;2022-12-18T02:28:57;100674.19;;;-8.12;94.17
5703;BME280;2876;51.738;10.050;2022-12-18T02:35:04;100660.19;;;-8.08;94.11
5703;BME280;2876;51.738;10.050;2022-12-18T02:41:07;100668.72;;;-8.03;93.69
5703;BME280;2876;51.738;10.050;2022-12-18T02:47:12;100691.78;;;-8.20;93.63
5703;BME280;2876;51.738;10.050;2022-12-18T02:53:51;100677.72;;;-8.41;94.09
5703;BME280;2876;51.738;10.050;2022-12-18T03:00:08;100677.09;;;-8.21;94.16
5703;BME280;2876;51.738;10.050;2022-12-18T03:06:35;100677.00;;;-8.46;93.37
5703;BME280;2876;51.738;10.050;2022-12-18T03:13:03;100680.78;;;-8.56;93.73
5703;BME280;2876;51.738;10.050;2022-12-18T03:19:19;100675.00;;;-8.66;94.08
5703;BME280;2876;51.738;10.050;2022-12-18T03:25:25;100669.63;;;-8.60;93.34
5703;BME280;2876;51.738;10.050;2022-12-18T03:31:32;100661.53;;;-8.51;93.80
5703;BME280;2876;51.738;10.050;2022-12-18T03:37:34;100662.31;;;-8.47;94.19
5703;BME280;2876;51.738;10.050;2022-12-18T03:50:27;100659.94;;;-8.55;93.89
5703;BME280;2876;51.738;10.050;2022-12-18T03:56:38;100652.81;;;-8.78;93.92
5703;BME280;2876;51.738;10.050;2022-12-18T04:03:01;100650.34;;;-8.82;93.73
5703;BME280;2876;51.738;10.050;2022-12-18T04:09:04;100647.34;;;-8.98;93.83
5703;BME280;2876;51.738;10.050;2022-12-18T04:15:08;100642.63;;;-9.15;93.58
5703;BME280;2876;51.738;10.050;2022-12-18T04:21:10;100660.38;;;-9.31;93.87
5703;BME280;2876;51.738;10.050;2022-12-18T04:27:12;100662.97;;;-9.31;93.13
5703;BME280;2876;51.738;10.050;2022-12-18T04:33:15;100665.84;;;-9.41;92.70
5703;BME280;2876;51.738;10.050;2022-12-18T04:39:17;100669.13;;;-9.04;92.78
5703;BME280;2876;51.738;10.050;2022-12-18T04:45:19;100675.09;;;-8.99;93.03
5703;BME280;2876;51.738;10.050;2022-12-18T04:51:21;100667.28;;;-8.99;93.08
5703;BME280;2876;51.738;10.050;2022-12-18T04:57:27;100658.78;;;-8.74;92.95
5703;BME280;2876;51.738;10.050;2022-12-18T05:03:29;100664.59;;;-8.66;93.41
5703;BME280;2876;51.738;10.050;2022-12-18T05:09:31;100689.13;;;-8.75;93.61
5703;BME280;2876;51.738;10.050;2022-12-18T05:15:34;100681.50;;;-8.81;93.02
5703;BME280;2876;51.738;10.050;2022-12-18T05:21:36;100671.63;;;-8.99;93.09
5703;BME280;2876;51.738;10.050;2022-12-18T05:27:38;100670.72;;;-8.98;92.75
5703;BME280;2876;51.738;10.050;2022-12-18T05:33:40;100667.03;;;-8.89;92.33
5703;BME280;2876;51.738;10.050;2022-12-18T05:39:43;100671.50;;;-8.95;91.90
5703;BME280;2876;51.738;10.050;2022-12-18T05:45:45;100674.19;;;-8.98;92.07
5703;BME280;2876;51.738;10.050;2022-12-18T05:51:47;100672.63;;;-9.03;91.30
5703;BME280;2876;51.738;10.050;2022-12-18T05:57:49;100690.34;;;-9.19;91.12
5703;BME280;2876;51.738;10.050;2022-12-18T06:03:51;100697.88;;;-9.10;92.33
5703;BME280;2876;51.738;10.050;2022-12-18T06:09:53;100692.88;;;-9.16;92.12
5703;BME280;2876;51.738;10.050;2022-12-18T06:15:55;100690.88;;;-9.06;92.32
5703;BME280;2876;51.738;10.050;2022-12-18T06:21:57;100700.44;;;-9.08;92.49
5703;BME280;2876;51.738;10.050;2022-12-18T06:28:00;100708.00;;;-8.99;92.14
5703;BME280;2876;51.738;10.050;2022-12-18T06:34:03;100702.06;;;-9.04;91.98
5703;BME280;2876;51.738;10.050;2022-12-18T06:40:06;100694.72;;;-8.88;91.39
5703;BME280;2876;51.738;10.050;2022-12-18T06:46:09;100693.69;;;-8.83;91.95
5703;BME280;2876;51.738;10.050;2022-12-18T06:52:11;100691.94;;;-8.82;92.47
5703;BME280;2876;51.738;10.050;2022-12-18T06:58:13;100709.19;;;-8.80;92.76
5703;BME280;2876;51.738;10.050;2022-12-18T07:04:15;100710.13;;;-8.82;92.57
5703;BME280;2876;51.738;10.050;2022-12-18T07:10:17;100705.28;;;-8.95;92.46
5703;BME280;2876;51.738;10.050;2022-12-18T07:16:20;100712.94;;;-8.90;92.10
5703;BME280;2876;51.738;10.050;2022-12-18T07:22:26;100738.44;;;-9.04;91.78
5703;BME280;2876;51.738;10.050;2022-12-18T07:28:28;100751.34;;;-9.01;91.81
5703;BME280;2876;51.738;10.050;2022-12-18T07:34:30;100760.78;;;-8.97;92.35
5703;BME280;2876;51.738;10.050;2022-12-18T07:40:32;100770.38;;;-8.99;92.15
5703;BME280;2876;51.738;10.050;2022-12-18T07:46:34;100777.50;;;-9.07;92.05
5703;BME280;2876;51.738;10.050;2022-12-18T07:52:36;100780.66;;;-8.96;91.41
5703;BME280;2876;51.738;10.050;2022-12-18T07:58:38;100782.22;;;-8.89;91.24
5703;BME280;2876;51.738;10.050;2022-12-18T08:04:40;100769.25;;;-8.90;91.14
5703;BME280;2876;51.738;10.050;2022-12-18T08:10:42;100760.94;;;-8.71;91.42
5703;BME280;2876;51.738;10.050;2022-12-18T08:16:44;100746.63;;;-8.56;91.19
5703;BME280;2876;51.738;10.050;2022-12-18T08:22:46;100743.59;;;-8.40;91.24
5703;BME280;2876;51.738;10.050;2022-12-18T08:28:49;100741.22;;;-8.20;91.20
5703;BME280;2876;51.738;10.050;2022-12-18T08:34:51;100720.84;;;-8.06;91.05
5703;BME280;2876;51.738;10.050;2022-12-18T08:41:04;100717.03;;;-7.96;91.36
5703;BME280;2876;51.738;10.050;2022-12-18T08:47:06;100712.69;;;-7.69;92.00
5703;BME280;2876;51.738;10.050;2022-12-18T08:53:08;100706.78;;;-7.47;92.06
5703;BME280;2876;51.738;10.050;2022-12-18T08:59:10;100699.28;;;-7.31;91.66
5703;BME280;2876;51.738;10.050;2022-12-18T09:05:20;100694.50;;;-7.17;91.60
5703;BME280;2876;51.738;10.050;2022-12-18T09:11:27;100693.31;;;-7.08;91.46
5703;BME280;2876;51.738;10.050;2022-12-18T09:17:30;100690.47;;;-7.02;90.37
5703;BME280;2876;51.738;10.050;2022-12-18T09:23:32;100696.31;;;-6.96;90.58
5703;BME280;2876;51.738;10.050;2022-12-18T09:29:34;100698.31;;;-6.79;89.93
5703;BME280;2876;51.738;10.050;2022-12-18T09:35:40;100700.84;;;-6.76;90.54
5703;BME280;2876;51.738;10.050;2022-12-18T09:41:52;100697.38;;;-6.53;90.90
5703;BME280;2876;51.738;10.050;2022-12-18T09:47:58;100684.16;;;-6.04;89.42
5703;BME280;2876;51.738;10.050;2022-12-18T09:54:10;100698.78;;;-5.78;89.30
5703;BME280;2876;51.738;10.050;2022-12-18T10:00:20;100699.09;;;-5.44;88.82
5703;BME280;2876;51.738;10.050;2022-12-18T10:19:24;100702.47;;;-4.80;87.60
5703;BME280;2876;51.738;10.050;2022-12-18T10:31:57;100695.06;;;-4.52;87.29
5703;BME280;2876;51.738;10.050;2022-12-18T10:38:30;100680.16;;;-4.31;87.04
5703;BME280;2876;51.738;10.050;2022-12-18T10:44:33;100681.28;;;-4.18;86.81
5703;BME280;2876;51.738;10.050;2022-12-18T10:50:36;100686.28;;;-3.94;86.06
5703;BME280;2876;51.738;10.050;2022-12-18T10:57:36;100681.44;;;-3.85;86.40
5703;BME280;2876;51.738;10.050;2022-12-18T11:03:46;100684.41;;;-3.92;87.09
5703;BME280;2876;51.738;10.050;2022-12-18T11:10:00;100665.56;;;-3.47;85.80
5703;BME280;2876;51.738;10.050;2022-12-18T11:16:03;100645.28;;;-3.26;85.90
5703;BME280;2876;51.738;10.050;2022-12-18T11:22:24;100648.69;;;-2.58;85.31
5703;BME280;2876;51.738;10.050;2022-12-18T11:28:50;100638.91;;;-1.92;83.81
5703;BME280;2876;51.738;10.050;2022-12-18T11:35:17;100633.75;;;-1.19;82.98
5703;BME280;2876;51.738;10.050;2022-12-18T11:41:38;100630.00;;;-0.72;80.44
5703;BME280;2876;51.738;10.050;2022-12-18T11:54:14;100616.28;;;-1.06;79.51
5703;BME280;2876;51.738;10.050;2022-12-18T12:00:18;100606.47;;;-1.33;79.13
5703;BME280;2876;51.738;10.050;2022-12-18T12:06:36;100582.91;;;-1.20;78.93
5703;BME280;2876;51.738;10.050;2022-12-18T12:13:39;100581.66;;;-1.43;79.47
5703;BME280;2876;51.738;10.050;2022-12-18T12:39:35;100545.28;;;-1.50;79.35
5703;BME280;2876;51.738;10.050;2022-12-18T12:46:04;100543.41;;;-1.48;79.46
5703;BME280;2876;51.738;10.050;2022-12-18T12:52:27;100517.28;;;-1.51;78.73
5703;BME280;2876;51.738;10.050;2022-12-18T12:59:05;100491.16;;;-1.69;78.00
5703;BME280;2876;51.738;10.050;2022-12-18T13:05:30;100500.44;;;-1.77;78.48
5703;BME280;2876;51.738;10.050;2022-12-18T13:11:43;100503.94;;;-1.77;79.09
5703;BME280;2876;51.738;10.050;2022-12-18T13:24:26;100491.78;;;-2.08;80.29
5703;BME280;2876;51.738;10.050;2022-12-18T13:36:34;100491.00;;;-2.10;80.81
5703;BME280;2876;51.738;10.050;2022-12-18T13:42:38;100485.97;;;-2.29;80.67
5703;BME280;2876;51.738;10.050;2022-12-18T13:49:45;100493.81;;;-2.43;80.77
5703;BME280;2876;51.738;10.050;2022-12-18T13:55:49;100499.00;;;-2.58;81.77
5703;BME280;2876;51.738;10.050;2022-12-18T14:01:58;100500.13;;;-2.77;81.81
5703;BME280;2876;51.738;10.050;2022-12-18T14:08:08;100500.88;;;-2.75;81.97
5703;BME280;2876;51.738;10.050;2022-12-18T14:14:15;100499.34;;;-3.11;83.48
5703;BME280;2876;51.738;10.050;2022-12-18T14:20:18;100495.97;;;-2.97;82.88
5703;BME280;2876;51.738;10.050;2022-12-18T14:26:29;100490.16;;;-3.02;83.42
5703;BME280;2876;51.738;10.050;2022-12-18T14:32:31;100471.50;;;-3.14;83.35
5703;BME280;2876;51.738;10.050;2022-12-18T14:38:35;100442.81;;;-3.01;82.78
5703;BME280;2876;51.738;10.050;2022-12-18T14:44:37;100438.59;;;-3.19;83.44
5703;BME280;2876;51.738;10.050;2022-12-18T14:51:13;100443.66;;;-3.32;83.45
5703;BME280;2876;51.738;10.050;2022-12-18T14:57:31;100447.28;;;-3.50;84.05
5703;BME280;2876;51.738;10.050;2022-12-18T15:03:43;100448.50;;;-3.40;83.87
5703;BME280;2876;51.738;10.050;2022-12-18T15:16:12;100445.00;;;-3.57;84.33
5703;BME280;2876;51.738;10.050;2022-12-18T15:22:24;100439.00;;;-3.59;84.65
5703;BME280;2876;51.738;10.050;2022-12-18T15:34:45;100447.53;;;-3.55;85.36
5703;BME280;2876;51.738;10.050;2022-12-18T15:40:47;100429.50;;;-3.61;84.95
5703;BME280;2876;51.738;10.050;2022-12-18T15:46:49;100440.00;;;-3.61;85.47
5703;BME280;2876;51.738;10.050;2022-12-18T15:52:53;100436.19;;;-3.55;84.87
5703;BME280;2876;51.738;10.050;2022-12-18T15:58:56;100439.75;;;-3.57;84.25
5703;BME280;2876;51.738;10.050;2022-12-18T16:04:58;100419.28;;;-3.50;84.17
5703;BME280;2876;51.738;10.050;2022-12-18T16:11:01;100412.44;;;-3.52;83.85
5703;BME280;2876;51.738;10.050;2022-12-18T16:17:08;100413.13;;;-3.49;83.65
5703;BME280;2876;51.738;10.050;2022-12-18T16:23:10;100418.94;;;-3.60;84.07
5703;BME280;2876;51.738;10.050;2022-12-18T16:29:12;100403.22;;;-3.60;83.96
5703;BME280;2876;51.738;10.050;2022-12-18T16:35:16;100399.09;;;-3.48;83.54
5703;BME280;2876;51.738;10.050;2022-12-18T16:41:19;100402.56;;;-3.63;83.96
5703;BME280;2876;51.738;10.050;2022-12-18T16:47:33;100397.56;;;-3.52;83.46
5703;BME280;2876;51.738;10.050;2022-12-18T16:53:35;100383.72;;;-3.54;84.00
5703;BME280;2876;51.738;10.050;2022-12-18T16:59:37;100377.44;;;-3.51;83.62
5703;BME280;2876;51.738;10.050;2022-12-18T17:05:39;100387.94;;;-3.36;83.62
5703;BME280;2876;51.738;10.050;2022-12-18T17:11:42;100386.16;;;-3.35;83.49
5703;BME280;2876;51.738;10.050;2022-12-18T17:17:44;100360.59;;;-3.16;82.40
5703;BME280;2876;51.738;10.050;2022-12-18T17:23:46;100365.00;;;-3.16;82.60
5703;BME280;2876;51.738;10.050;2022-12-18T17:29:48;100354.91;;;-3.24;82.96
5703;BME280;2876;51.738;10.050;2022-12-18T17:35:50;100361.63;;;-3.34;82.42
5703;BME280;2876;51.738;10.050;2022-12-18T17:41:52;100342.41;;;-3.35;83.33
5703;BME280;2876;51.738;10.050;2022-12-18T17:47:54;100342.41;;;-3.35;83.11
5703;BME280;2876;51.738;10.050;2022-12-18T17:54:00;100325.47;;;-3.13;82.18
5703;BME280;2876;51.738;10.050;2022-12-18T18:00:04;100348.16;;;-3.28;83.02
5703;BME280;2876;51.738;10.050;2022-12-18T18:06:07;100353.06;;;-3.22;82.91
5703;BME280;2876;51.738;10.050;2022-12-18T18:12:08;100346.72;;;-2.88;81.85
5703;BME280;2876;51.738;10.050;2022-12-18T18:18:30;100326.81;;;-3.06;82.65
5703;BME280;2876;51.738;10.050;2022-12-18T18:24:32;100318.22;;;-2.94;82.00
5703;BME280;2876;51.738;10.050;2022-12-18T18:30:37;100313.28;;;-3.14;82.82
5703;BME280;2876;51.738;10.050;2022-12-18T18:36:39;100334.56;;;-3.04;82.00
5703;BME280;2876;51.738;10.050;2022-12-18T18:42:41;100356.50;;;-3.06;82.73
5703;BME280;2876;51.738;10.050;2022-12-18T18:48:43;100330.94;;;-2.72;81.65
5703;BME280;2876;51.738;10.050;2022-12-18T18:54:47;100319.53;;;-2.87;82.55
5703;BME280;2876;51.738;10.050;2022-12-18T19:01:18;100312.13;;;-2.94;82.49
5703;BME280;2876;51.738;10.050;2022-12-18T19:07:22;100276.84;;;-3.04;82.77
5703;BME280;2876;51.738;10.050;2022-12-18T19:13:33;100272.84;;;-2.96;83.11
5703;BME280;2876;51.738;10.050;2022-12-18T19:19:35;100262.84;;;-2.89;82.86
5703;BME280;2876;51.738;10.050;2022-12-18T19:25:38;100261.50;;;-2.96;82.95
5703;BME280;2876;51.738;10.050;2022-12-18T19:31:43;100276.81;;;-2.89;82.72
5703;BME280;2876;51.738;10.050;2022-12-18T19:37:46;100273.47;;;-2.76;81.41
5703;BME280;2876;51.738;10.050;2022-12-18T19:43:49;100288.97;;;-2.43;79.67
5703;BME280;2876;51.738;10.050;2022-12-18T19:49:51;100287.34;;;-2.46;80.86
5703;BME280;2876;51.738;10.050;2022-12-18T19:55:54;100276.56;;;-2.41;80.78
5703;BME280;2876;51.738;10.050;2022-12-18T20:01:56;100285.03;;;-2.08;79.66
5703;BME280;2876;51.738;10.050;2022-12-18T20:07:58;100268.50;;;-2.10;79.07
5703;BME280;2876;51.738;10.050;2022-12-18T20:14:01;100253.09;;;-2.01;78.99
5703;BME280;2876;51.738;10.050;2022-12-18T20:20:04;100271.88;;;-2.08;78.99
5703;BME280;2876;51.738;10.050;2022-12-18T20:26:06;100277.16;;;-2.36;80.69
5703;BME280;2876;51.738;10.050;2022-12-18T20:32:09;100266.44;;;-2.19;80.68
5703;BME280;2876;51.738;10.050;2022-12-18T20:38:11;100268.03;;;-2.02;79.15
5703;BME280;2876;51.738;10.050;2022-12-18T20:44:16;100254.50;;;-1.96;78.60
5703;BME280;2876;51.738;10.050;2022-12-18T20:50:24;100244.25;;;-2.00;79.13
5703;BME280;2876;51.738;10.050;2022-12-18T20:56:27;100249.47;;;-2.13;79.80
5703;BME280;2876;51.738;10.050;2022-12-18T21:02:31;100222.88;;;-1.94;80.15
5703;BME280;2876;51.738;10.050;2022-12-18T21:08:33;100212.97;;;-1.91;79.13
5703;BME280;2876;51.738;10.050;2022-12-18T21:14:36;100218.41;;;-1.80;78.28
5703;BME280;2876;51.738;10.050;2022-12-18T21:20:38;100209.09;;;-1.71;78.24
5703;BME280;2876;51.738;10.050;2022-12-18T21:26:40;100198.41;;;-1.55;77.56
5703;BME280;2876;51.738;10.050;2022-12-18T21:32:46;100212.19;;;-1.51;77.77
5703;BME280;2876;51.738;10.050;2022-12-18T21:38:48;100210.53;;;-1.52;78.58
5703;BME280;2876;51.738;10.050;2022-12-18T21:44:51;100229.63;;;-1.63;77.95
5703;BME280;2876;51.738;10.050;2022-12-18T21:50:53;100230.41;;;-1.48;77.93
5703;BME280;2876;51.738;10.050;2022-12-18T21:56:57;100220.31;;;-1.42;77.52
5703;BME280;2876;51.738;10.050;2022-12-18T22:02:59;100207.69;;;-1.49;77.83
5703;BME280;2876;51.738;10.050;2022-12-18T22:09:21;100200.50;;;-1.60;78.95
5703;BME280;2876;51.738;10.050;2022-12-18T22:15:24;100196.22;;;-1.48;78.25
5703;BME280;2876;51.738;10.050;2022-12-18T22:21:28;100210.44;;;-1.38;78.53
5703;BME280;2876;51.738;10.050;2022-12-18T22:27:31;100203.78;;;-1.57;79.79
5703;BME280;2876;51.738;10.050;2022-12-18T22:33:33;100198.25;;;-1.39;78.75
5703;BME280;2876;51.738;10.050;2022-12-18T22:39:35;100181.47;;;-1.51;79.98
5703;BME280;2876;51.738;10.050;2022-12-18T22:45:37;100182.13;;;-1.47;79.72
5703;BME280;2876;51.738;10.050;2022-12-18T22:51:39;100190.03;;;-1.35;79.08
5703;BME280;2876;51.738;10.050;2022-12-18T22:57:41;100174.03;;;-1.44;79.53
5703;BME280;2876;51.738;10.050;2022-12-18T23:03:51;100161.28;;;-1.50;80.03
5703;BME280;2876;51.738;10.050;2022-12-18T23:09:53;100168.06;;;-1.21;79.21
5703;BME280;2876;51.738;10.050;2022-12-18T23:16:14;100161.31;;;-1.38;80.07
5703;BME280;2876;51.738;10.050;2022-12-18T23:22:16;100161.09;;;-1.35;80.14
5703;BME280;2876;51.738;10.050;2022-12-18T23:28:18;100131.97;;;-1.32;80.29
5703;BME280;2876;51.738;10.050;2022-12-18T23:34:20;100126.06;;;-1.10;79.20
5703;BME280;2876;51.738;10.050;2022-12-18T23:40:22;100127.31;;;-1.28;79.87
5703;BME280;2876;51.738;10.050;2022-12-18T23:46:33;100122.81;;;-1.13;79.26
5703;BME280;2876;51.738;10.050;2022-12-18T23:52:35;100123.22;;;-1.19;80.02
5703;BME280;2876;51.738;10.050;2022-12-18T23:58:37;100117.13;;;-1.07;80.27
